createdAt,value
2019-01-11T00:00:25.822Z,102286.63
2019-01-11T00:01:33.446Z,102291.42
2019-01-11T00:02:38.242Z,102283.66
2019-01-11T00:03:43.391Z,102287.31
2019-01-11T00:04:49.161Z,102285.73
2019-01-11T00:05:53.934Z,102288.30
2019-01-11T00:06:58.719Z,102286.92
2019-01-11T00:08:03.845Z,102287.41
2019-01-11T00:09:09.830Z,102287.97
2019-01-11T00:10:14.312Z,102286.32
2019-01-11T00:11:19.088Z,102288.98
2019-01-11T00:12:23.841Z,102284.88
2019-01-11T00:13:28.324Z,102279.06
2019-01-11T00:14:33.964Z,102278.66
2019-01-11T00:15:39.466Z,102286.14
2019-01-11T00:16:44.964Z,102280.16
2019-01-11T00:17:50.606Z,102284.27
2019-01-11T00:18:55.354Z,102281.23
2019-01-11T00:20:03.779Z,102283.48
2019-01-11T00:21:06.998Z,102274.97
2019-01-11T00:22:11.787Z,102281.11
2019-01-11T00:23:16.949Z,102280.05
2019-01-11T00:24:21.754Z,102281.04
2019-01-11T00:25:26.561Z,102283.10
2019-01-11T00:26:31.358Z,102279.00
2019-01-11T00:27:36.481Z,102274.47
2019-01-11T00:28:41.251Z,102279.67
2019-01-11T00:29:46.411Z,102280.45
2019-01-11T00:30:51.644Z,102279.08
2019-01-11T00:31:56.407Z,102272.81
2019-01-11T00:33:01.514Z,102278.41
2019-01-11T00:34:05.993Z,102271.44
2019-01-11T00:35:11.166Z,102271.26
2019-01-11T00:36:15.662Z,102270.86
2019-01-11T00:37:20.790Z,102274.75
2019-01-11T00:38:25.874Z,102272.13
2019-01-11T00:39:30.676Z,102269.58
2019-01-11T00:40:35.471Z,102266.66
2019-01-11T00:41:40.895Z,102266.45
2019-01-11T00:42:45.682Z,102270.66
2019-01-11T00:43:50.866Z,102268.33
2019-01-11T00:44:55.667Z,102259.08
2019-01-11T00:46:00.733Z,102263.22
2019-01-11T00:47:05.522Z,102262.84
2019-01-11T00:48:10.618Z,102263.52
2019-01-11T00:49:15.419Z,102255.48
2019-01-11T00:50:22.272Z,102256.76
2019-01-11T00:51:27.041Z,102254.89
2019-01-11T00:52:31.832Z,102255.38
2019-01-11T00:53:36.317Z,102258.25
2019-01-11T00:54:41.404Z,102258.03
2019-01-11T00:55:46.173Z,102256.38
2019-01-11T00:56:51.269Z,102256.26
2019-01-11T00:57:56.373Z,102256.75
2019-01-11T00:59:01.156Z,102257.25
2019-01-11T01:00:07.424Z,102257.91
2019-01-11T01:01:12.186Z,102259.30
2019-01-11T01:02:17.042Z,102258.80
2019-01-11T01:03:21.808Z,102256.09
2019-01-11T01:04:26.284Z,102257.91
2019-01-11T01:05:31.404Z,102258.91
2019-01-11T01:06:36.908Z,102259.68
2019-01-11T01:07:42.069Z,102253.71
2019-01-11T01:08:47.274Z,102260.86
2019-01-11T01:09:51.751Z,102257.42
2019-01-11T01:10:56.532Z,102261.84
2019-01-11T01:12:01.504Z,102263.10
2019-01-11T01:13:06.355Z,102260.16
2019-01-11T01:14:11.421Z,102264.66
2019-01-11T01:15:16.764Z,102263.30
2019-01-11T01:16:21.979Z,102262.13
2019-01-11T01:17:27.137Z,102259.97
2019-01-11T01:18:31.910Z,102258.13
2019-01-11T01:19:36.731Z,102251.53
2019-01-11T01:20:41.950Z,102250.66
2019-01-11T01:21:47.006Z,102250.77
2019-01-11T01:22:51.788Z,102245.77
2019-01-11T01:23:56.883Z,102248.83
2019-01-11T01:25:01.399Z,102248.71
2019-01-11T01:26:06.154Z,102253.31
2019-01-11T01:27:11.239Z,102252.15
2019-01-11T01:28:16.329Z,102250.87
2019-01-11T01:29:21.935Z,102249.72
2019-01-11T01:30:27.065Z,102250.56
2019-01-11T01:31:32.598Z,102248.13
2019-01-11T01:32:37.388Z,102253.61
2019-01-11T01:33:42.213Z,102245.08
2019-01-11T01:34:46.725Z,102255.48
2019-01-11T01:35:51.867Z,102248.89
2019-01-11T01:36:56.639Z,102254.38
2019-01-11T01:38:01.408Z,102245.00
2019-01-11T01:39:08.144Z,102249.98
2019-01-11T01:40:12.807Z,102247.16
2019-01-11T01:41:17.971Z,102248.83
2019-01-11T01:42:23.212Z,102247.23
2019-01-11T01:43:28.357Z,102242.23
2019-01-11T01:44:33.168Z,102246.08
2019-01-11T01:45:37.949Z,102242.45
2019-01-11T01:46:42.698Z,102241.06
2019-01-11T01:47:47.755Z,102246.34
2019-01-11T01:48:52.574Z,102239.80
2019-01-11T01:49:57.337Z,102245.30
2019-01-11T01:51:02.471Z,102242.64
2019-01-11T01:52:07.650Z,102237.81
2019-01-11T01:53:13.143Z,102239.41
2019-01-11T01:54:18.670Z,102237.81
2019-01-11T01:55:23.560Z,102239.53
2019-01-11T01:56:28.442Z,102239.05
2019-01-11T01:57:34.860Z,102235.50
2019-01-11T01:58:40.052Z,102238.25
2019-01-11T01:59:45.202Z,102238.15
2019-01-11T02:00:49.969Z,102237.56
2019-01-11T02:01:55.075Z,102238.25
2019-01-11T02:03:00.197Z,102232.84
2019-01-11T02:04:04.677Z,102233.17
2019-01-11T02:05:10.114Z,102233.64
2019-01-11T02:06:14.869Z,102231.58
2019-01-11T02:07:20.032Z,102233.45
2019-01-11T02:08:25.135Z,102237.67
2019-01-11T02:09:29.927Z,102232.79
2019-01-11T02:10:35.089Z,102222.67
2019-01-11T02:11:40.554Z,102226.70
2019-01-11T02:12:45.339Z,102224.04
2019-01-11T02:13:50.477Z,102225.52
2019-01-11T02:14:55.879Z,102223.26
2019-01-11T02:16:01.189Z,102223.65
2019-01-11T02:17:06.650Z,102226.98
2019-01-11T02:18:12.112Z,102228.75
2019-01-11T02:19:17.235Z,102227.86
2019-01-11T02:20:22.364Z,102229.80
2019-01-11T02:21:27.437Z,102222.77
2019-01-11T02:22:32.647Z,102223.05
2019-01-11T02:23:37.455Z,102223.14
2019-01-11T02:24:42.907Z,102224.62
2019-01-11T02:25:47.461Z,102219.22
2019-01-11T02:26:52.646Z,102212.09
2019-01-11T02:27:57.866Z,102214.45
2019-01-11T02:29:02.615Z,102217.09
2019-01-11T02:30:09.810Z,102208.75
2019-01-11T02:31:15.002Z,102202.61
2019-01-11T02:32:19.786Z,102204.65
2019-01-11T02:33:25.284Z,102207.02
2019-01-11T02:34:30.466Z,102204.29
2019-01-11T02:35:35.954Z,102197.52
2019-01-11T02:36:40.747Z,102198.97
2019-01-11T02:37:46.248Z,102200.47
2019-01-11T02:38:51.778Z,102195.87
2019-01-11T02:39:56.670Z,102196.05
2019-01-11T02:41:01.458Z,102198.98
2019-01-11T02:42:06.626Z,102195.44
2019-01-11T02:43:11.385Z,102192.89
2019-01-11T02:44:16.590Z,102193.98
2019-01-11T02:45:21.722Z,102191.92
2019-01-11T02:46:27.969Z,102190.75
2019-01-11T02:47:34.998Z,102188.42
2019-01-11T02:48:40.078Z,102186.34
2019-01-11T02:49:44.850Z,102187.90
2019-01-11T02:50:50.526Z,102186.94
2019-01-11T02:51:55.698Z,102184.45
2019-01-11T02:53:01.264Z,102181.73
2019-01-11T02:54:06.072Z,102176.81
2019-01-11T02:55:11.163Z,102180.66
2019-01-11T02:56:15.654Z,102183.92
2019-01-11T02:57:20.743Z,102180.97
2019-01-11T02:58:25.912Z,102171.34
2019-01-11T02:59:30.703Z,102176.05
2019-01-11T03:00:35.526Z,102175.66
2019-01-11T03:01:40.296Z,102175.19
2019-01-11T03:02:45.164Z,102173.23
2019-01-11T03:03:50.048Z,102171.58
2019-01-11T03:04:55.223Z,102176.03
2019-01-11T03:05:59.717Z,102168.81
2019-01-11T03:07:04.997Z,102171.84
2019-01-11T03:08:10.433Z,102172.11
2019-01-11T03:09:15.732Z,102167.74
2019-01-11T03:10:21.761Z,102170.07
2019-01-11T03:11:27.253Z,102167.13
2019-01-11T03:12:32.270Z,102165.20
2019-01-11T03:13:38.356Z,102163.81
2019-01-11T03:14:42.874Z,102164.88
2019-01-11T03:15:47.359Z,102168.90
2019-01-11T03:16:52.141Z,102166.63
2019-01-11T03:17:57.255Z,102171.33
2019-01-11T03:19:02.103Z,102160.97
2019-01-11T03:20:07.779Z,102164.19
2019-01-11T03:21:13.224Z,102165.45
2019-01-11T03:22:18.650Z,102154.48
2019-01-11T03:23:23.860Z,102160.46
2019-01-11T03:24:29.480Z,102155.77
2019-01-11T03:25:34.661Z,102160.56
2019-01-11T03:26:39.541Z,102155.27
2019-01-11T03:27:44.625Z,102152.65
2019-01-11T03:28:50.112Z,102149.54
2019-01-11T03:29:54.893Z,102148.64
2019-01-11T03:31:01.307Z,102144.99
2019-01-11T03:32:06.410Z,102146.47
2019-01-11T03:33:11.307Z,102145.96
2019-01-11T03:34:16.693Z,102147.34
2019-01-11T03:35:23.115Z,102141.16
2019-01-11T03:36:27.718Z,102149.02
2019-01-11T03:37:32.492Z,102140.65
2019-01-11T03:38:37.636Z,102139.59
2019-01-11T03:39:43.106Z,102139.22
2019-01-11T03:40:48.336Z,102133.25
2019-01-11T03:41:58.894Z,102137.58
2019-01-11T03:43:03.679Z,102130.80
2019-01-11T03:44:08.820Z,102129.14
2019-01-11T03:45:14.474Z,102127.54
2019-01-11T03:46:18.960Z,102125.69
2019-01-11T03:47:24.036Z,102119.90
2019-01-11T03:48:29.740Z,102128.41
2019-01-11T03:49:37.158Z,102118.54
2019-01-11T03:50:41.680Z,102121.39
2019-01-11T03:51:47.190Z,102121.08
2019-01-11T03:52:51.955Z,102122.45
2019-01-11T03:53:57.383Z,102122.28
2019-01-11T03:55:02.482Z,102117.06
2019-01-11T03:56:06.991Z,102117.72
2019-01-11T03:57:12.291Z,102116.67
2019-01-11T03:58:17.124Z,102119.34
2019-01-11T03:59:21.906Z,102119.22
2019-01-11T04:00:26.976Z,102122.64
2019-01-11T04:01:32.212Z,102118.54
2019-01-11T04:02:37.363Z,102119.12
2019-01-11T04:03:42.473Z,102123.62
2019-01-11T04:04:47.279Z,102111.84
2019-01-11T04:05:52.031Z,102116.55
2019-01-11T04:06:57.215Z,102112.17
2019-01-11T04:08:01.714Z,102111.28
2019-01-11T04:09:09.868Z,102109.62
2019-01-11T04:10:17.619Z,102108.15
2019-01-11T04:11:23.545Z,102108.54
2019-01-11T04:12:28.700Z,102107.27
2019-01-11T04:13:34.642Z,102113.53
2019-01-11T04:14:39.848Z,102105.70
2019-01-11T04:15:44.625Z,102098.73
2019-01-11T04:16:50.196Z,102099.20
2019-01-11T04:18:22.650Z,102095.61
2019-01-11T04:19:27.746Z,102094.51
2019-01-11T04:20:33.214Z,102097.34
2019-01-11T04:21:38.616Z,102091.47
2019-01-11T04:22:50.089Z,102092.08
2019-01-11T04:23:55.580Z,102091.59
2019-01-11T04:25:19.159Z,102090.03
2019-01-11T04:26:23.997Z,102099.52
2019-01-11T04:27:29.250Z,102093.48
2019-01-11T04:28:34.108Z,102089.44
2019-01-11T04:29:39.962Z,102085.42
2019-01-11T04:30:44.444Z,102090.24
2019-01-11T04:31:50.128Z,102087.37
2019-01-11T04:32:55.764Z,102093.13
2019-01-11T04:34:00.603Z,102084.22
2019-01-11T04:35:05.433Z,102085.20
2019-01-11T04:36:10.632Z,102078.73
2019-01-11T04:37:15.463Z,102076.19
2019-01-11T04:38:20.266Z,102074.63
2019-01-11T04:39:24.839Z,102080.98
2019-01-11T04:40:34.109Z,102073.94
2019-01-11T04:41:36.174Z,102077.66
2019-01-11T04:42:41.027Z,102074.67
2019-01-11T04:43:45.600Z,102069.94
2019-01-11T04:44:50.797Z,102075.82
2019-01-11T04:45:56.248Z,102076.60
2019-01-11T04:47:01.803Z,102071.19
2019-01-11T04:48:06.957Z,102079.48
2019-01-11T04:49:12.428Z,102074.63
2019-01-11T04:50:20.722Z,102073.94
2019-01-11T04:51:25.991Z,102067.98
2019-01-11T04:52:30.490Z,102072.95
2019-01-11T04:53:38.380Z,102067.72
2019-01-11T04:54:43.651Z,102071.70
2019-01-11T04:55:48.445Z,102067.98
2019-01-11T04:56:53.871Z,102069.55
2019-01-11T04:57:59.135Z,102064.72
2019-01-11T04:59:04.706Z,102064.89
2019-01-11T05:00:13.627Z,102059.70
2019-01-11T05:01:18.490Z,102058.22
2019-01-11T05:02:23.245Z,102059.23
2019-01-11T05:03:28.354Z,102060.02
2019-01-11T05:04:33.127Z,102062.05
2019-01-11T05:05:38.524Z,102068.61
2019-01-11T05:06:43.970Z,102067.63
2019-01-11T05:07:48.719Z,102072.23
2019-01-11T05:08:54.197Z,102065.09
2019-01-11T05:09:59.676Z,102067.56
2019-01-11T05:11:04.855Z,102072.44
2019-01-11T05:12:09.680Z,102067.86
2019-01-11T05:13:30.850Z,102068.31
2019-01-11T05:14:36.986Z,102064.30
2019-01-11T05:15:42.421Z,102077.23
2019-01-11T05:16:47.666Z,102075.89
2019-01-11T05:17:52.761Z,102072.17
2019-01-11T05:18:57.528Z,102070.50
2019-01-11T05:20:02.316Z,102065.09
2019-01-11T05:21:07.513Z,102069.11
2019-01-11T05:22:12.509Z,102063.78
2019-01-11T05:23:17.616Z,102069.11
2019-01-11T05:24:23.060Z,102068.02
2019-01-11T05:25:27.850Z,102065.41
2019-01-11T05:26:32.655Z,102065.97
2019-01-11T05:27:37.912Z,102064.70
2019-01-11T05:28:43.421Z,102061.17
2019-01-11T05:29:48.642Z,102065.05
2019-01-11T05:30:53.515Z,102064.98
2019-01-11T05:31:58.629Z,102062.80
2019-01-11T05:33:04.226Z,102054.38
2019-01-11T05:34:09.104Z,102057.34
2019-01-11T05:35:13.997Z,102055.61
2019-01-11T05:36:19.223Z,102054.38
2019-01-11T05:37:24.321Z,102051.40
2019-01-11T05:38:29.513Z,102055.58
2019-01-11T05:39:34.415Z,102056.72
2019-01-11T05:40:39.398Z,102054.08
2019-01-11T05:41:44.991Z,102055.25
2019-01-11T05:42:50.160Z,102052.12
2019-01-11T05:43:54.641Z,102055.16
2019-01-11T05:45:00.228Z,102054.77
2019-01-11T05:46:05.165Z,102052.52
2019-01-11T05:47:09.986Z,102052.70
2019-01-11T05:48:14.860Z,102056.43
2019-01-11T05:49:19.667Z,102052.91
2019-01-11T05:50:24.560Z,102054.96
2019-01-11T05:51:29.689Z,102055.52
2019-01-11T05:52:34.967Z,102055.31
2019-01-11T05:53:40.518Z,102049.18
2019-01-11T05:54:45.008Z,102050.52
2019-01-11T05:55:51.861Z,102052.91
2019-01-11T05:56:56.646Z,102054.17
2019-01-11T05:58:38.864Z,102055.19
2019-01-11T05:59:43.347Z,102053.98
2019-01-11T06:00:48.200Z,102053.69
2019-01-11T06:01:56.586Z,102050.55
2019-01-11T06:03:01.382Z,102051.79
2019-01-11T06:04:24.922Z,102057.02
2019-01-11T06:05:30.328Z,102061.88
2019-01-11T06:06:57.436Z,102058.36
2019-01-11T06:08:09.140Z,102055.06
2019-01-11T06:09:13.941Z,102052.84
2019-01-11T06:10:18.736Z,102046.56
2019-01-11T06:11:23.881Z,102049.24
2019-01-11T06:12:29.039Z,102052.18
2019-01-11T06:13:34.920Z,102048.06
2019-01-11T06:14:40.079Z,102052.34
2019-01-11T06:15:44.937Z,102048.59
2019-01-11T06:16:49.831Z,102050.52
2019-01-11T06:17:54.603Z,102049.44
2019-01-11T06:18:59.840Z,102051.20
2019-01-11T06:20:05.066Z,102042.94
2019-01-11T06:21:10.348Z,102046.98
2019-01-11T06:22:15.239Z,102047.97
2019-01-11T06:23:20.089Z,102048.45
2019-01-11T06:24:24.874Z,102048.45
2019-01-11T06:25:30.246Z,102049.14
2019-01-11T06:26:35.206Z,102044.44
2019-01-11T06:27:39.990Z,102046.36
2019-01-11T06:28:45.079Z,102037.67
2019-01-11T06:29:49.864Z,102049.63
2019-01-11T06:30:55.395Z,102048.13
2019-01-11T06:32:00.785Z,102046.63
2019-01-11T06:33:06.280Z,102050.44
2019-01-11T06:34:11.076Z,102052.58
2019-01-11T06:35:15.848Z,102051.79
2019-01-11T06:36:20.777Z,102056.40
2019-01-11T06:37:26.386Z,102055.58
2019-01-11T06:38:31.463Z,102055.55
2019-01-11T06:39:36.796Z,102052.28
2019-01-11T06:40:41.291Z,102055.38
2019-01-11T06:41:51.960Z,102054.80
2019-01-11T06:43:03.367Z,102054.30
2019-01-11T06:44:03.625Z,102048.29
2019-01-11T06:45:09.857Z,102045.19
2019-01-11T06:46:14.607Z,102044.41
2019-01-11T06:47:19.383Z,102042.70
2019-01-11T06:48:36.031Z,102045.30
2019-01-11T06:49:41.335Z,102048.45
2019-01-11T06:50:46.859Z,102048.66
2019-01-11T06:51:51.684Z,102050.13
2019-01-11T06:52:56.799Z,102048.83
2019-01-11T06:54:02.204Z,102052.30
2019-01-11T06:55:07.213Z,102048.23
2019-01-11T06:56:12.658Z,102048.29
2019-01-11T06:57:17.766Z,102051.68
2019-01-11T06:58:23.102Z,102050.89
2019-01-11T06:59:28.665Z,102054.33
2019-01-11T07:00:33.580Z,102060.54
2019-01-11T07:01:38.785Z,102060.55
2019-01-11T07:02:43.993Z,102058.61
2019-01-11T07:03:48.892Z,102058.48
2019-01-11T07:04:53.850Z,102058.87
2019-01-11T07:05:58.665Z,102057.50
2019-01-11T07:07:03.764Z,102057.27
2019-01-11T07:08:08.911Z,102061.67
2019-01-11T07:09:14.064Z,102057.06
2019-01-11T07:10:20.892Z,102061.14
2019-01-11T07:11:25.720Z,102055.56
2019-01-11T07:12:30.489Z,102056.73
2019-01-11T07:13:35.948Z,102050.69
2019-01-11T07:14:41.372Z,102049.97
2019-01-11T07:15:46.539Z,102058.59
2019-01-11T07:16:51.773Z,102048.20
2019-01-11T07:17:56.900Z,102053.75
2019-01-11T07:19:01.762Z,102053.69
2019-01-11T07:20:07.490Z,102057.42
2019-01-11T07:21:12.270Z,102055.81
2019-01-11T07:22:17.825Z,102050.81
2019-01-11T07:23:22.612Z,102055.91
2019-01-11T07:24:27.555Z,102056.44
2019-01-11T07:25:32.476Z,102050.30
2019-01-11T07:26:38.639Z,102053.41
2019-01-11T07:27:49.577Z,102051.98
2019-01-11T07:28:55.105Z,102050.71
2019-01-11T07:30:00.623Z,102053.69
2019-01-11T07:31:09.467Z,102052.81
2019-01-11T07:32:14.334Z,102055.07
2019-01-11T07:33:19.886Z,102057.55
2019-01-11T07:34:24.634Z,102051.53
2019-01-11T07:35:41.227Z,102049.67
2019-01-11T07:36:48.333Z,102058.85
2019-01-11T07:37:53.859Z,102057.91
2019-01-11T07:38:58.710Z,102061.94
2019-01-11T07:40:04.106Z,102058.79
2019-01-11T07:41:09.214Z,102064.88
2019-01-11T07:42:13.696Z,102062.77
2019-01-11T07:43:18.561Z,102066.83
2019-01-11T07:44:25.990Z,102068.50
2019-01-11T07:45:30.752Z,102073.11
2019-01-11T07:46:35.554Z,102071.92
2019-01-11T07:47:40.314Z,102072.09
2019-01-11T07:48:45.435Z,102071.99
2019-01-11T07:49:50.291Z,102067.67
2019-01-11T07:50:55.375Z,102077.00
2019-01-11T07:52:00.907Z,102071.36
2019-01-11T07:53:05.747Z,102073.84
2019-01-11T07:54:10.520Z,102070.52
2019-01-11T07:55:15.677Z,102068.13
2019-01-11T07:56:20.425Z,102071.11
2019-01-11T07:57:25.672Z,102066.11
2019-01-11T07:58:31.394Z,102070.13
2019-01-11T07:59:36.222Z,102071.30
2019-01-11T08:00:41.438Z,102064.83
2019-01-11T08:01:46.618Z,102067.73
2019-01-11T08:02:52.222Z,102064.00
2019-01-11T08:03:57.440Z,102060.04
2019-01-11T08:05:02.302Z,102059.73
2019-01-11T08:06:07.071Z,102060.37
2019-01-11T08:07:12.171Z,102056.21
2019-01-11T08:08:17.947Z,102058.11
2019-01-11T08:09:23.258Z,102056.05
2019-01-11T08:10:28.386Z,102060.13
2019-01-11T08:11:33.192Z,102060.23
2019-01-11T08:12:37.718Z,102060.97
2019-01-11T08:13:42.860Z,102059.14
2019-01-11T08:14:47.639Z,102058.81
2019-01-11T08:15:52.726Z,102056.00
2019-01-11T08:16:57.562Z,102055.31
2019-01-11T08:18:03.207Z,102059.88
2019-01-11T08:19:08.076Z,102059.69
2019-01-11T08:20:12.842Z,102057.39
2019-01-11T08:21:17.917Z,102057.88
2019-01-11T08:22:41.885Z,102060.67
2019-01-11T08:23:47.033Z,102057.09
2019-01-11T08:25:01.447Z,102057.67
2019-01-11T08:26:06.538Z,102057.00
2019-01-11T08:27:11.029Z,102056.55
2019-01-11T08:28:15.844Z,102058.86
2019-01-11T08:29:20.380Z,102057.81
2019-01-11T08:30:25.862Z,102050.42
2019-01-11T08:31:34.743Z,102056.07
2019-01-11T08:32:37.756Z,102054.20
2019-01-11T08:33:42.864Z,102053.85
2019-01-11T08:34:47.660Z,102056.80
2019-01-11T08:35:52.413Z,102059.59
2019-01-11T08:36:57.188Z,102055.03
2019-01-11T08:38:02.404Z,102054.64
2019-01-11T08:39:09.171Z,102051.84
2019-01-11T08:40:13.694Z,102054.41
2019-01-11T08:41:18.185Z,102059.11
2019-01-11T08:42:23.073Z,102056.89
2019-01-11T08:43:27.547Z,102062.77
2019-01-11T08:44:35.617Z,102057.77
2019-01-11T08:45:41.145Z,102056.30
2019-01-11T08:46:45.887Z,102056.41
2019-01-11T08:47:51.068Z,102060.72
2019-01-11T08:48:56.150Z,102062.45
2019-01-11T08:50:01.222Z,102055.61
2019-01-11T08:51:05.926Z,102059.39
2019-01-11T08:52:13.570Z,102061.27
2019-01-11T08:53:18.370Z,102056.45
2019-01-11T08:54:23.495Z,102056.05
2019-01-11T08:55:29.412Z,102062.77
2019-01-11T08:56:33.885Z,102057.00
2019-01-11T08:57:38.676Z,102060.62
2019-01-11T08:58:44.793Z,102060.77
2019-01-11T08:59:49.951Z,102066.95
2019-01-11T09:00:55.146Z,102060.72
2019-01-11T09:02:00.656Z,102060.04
2019-01-11T09:03:05.431Z,102062.94
2019-01-11T09:04:10.522Z,102060.08
2019-01-11T09:05:15.621Z,102062.83
2019-01-11T09:06:21.137Z,102054.35
2019-01-11T09:07:25.904Z,102060.03
2019-01-11T09:08:30.780Z,102059.59
2019-01-11T09:09:35.587Z,102061.31
2019-01-11T09:10:40.386Z,102061.66
2019-01-11T09:11:45.154Z,102058.31
2019-01-11T09:12:50.250Z,102061.75
2019-01-11T09:13:55.351Z,102059.16
2019-01-11T09:15:00.302Z,102057.24
2019-01-11T09:16:05.314Z,102064.78
2019-01-11T09:17:10.461Z,102064.24
2019-01-11T09:18:16.479Z,102063.76
2019-01-11T09:19:21.221Z,102058.41
2019-01-11T09:20:25.711Z,102057.33
2019-01-11T09:21:30.505Z,102061.78
2019-01-11T09:22:35.976Z,102060.51
2019-01-11T09:23:42.458Z,102062.33
2019-01-11T09:24:47.892Z,102064.28
2019-01-11T09:25:52.993Z,102064.67
2019-01-11T09:26:57.502Z,102067.04
2019-01-11T09:28:02.995Z,102065.67
2019-01-11T09:29:07.776Z,102067.28
2019-01-11T09:30:12.584Z,102067.08
2019-01-11T09:31:17.438Z,102068.05
2019-01-11T09:32:22.220Z,102062.52
2019-01-11T09:33:27.375Z,102062.47
2019-01-11T09:34:32.015Z,102061.52
2019-01-11T09:35:36.498Z,102061.04
2019-01-11T09:36:41.460Z,102063.01
2019-01-11T09:37:46.724Z,102061.19
2019-01-11T09:38:51.495Z,102060.55
2019-01-11T09:39:56.264Z,102061.58
2019-01-11T09:41:01.390Z,102062.95
2019-01-11T09:42:07.114Z,102062.31
2019-01-11T09:43:11.929Z,102065.84
2019-01-11T09:44:16.417Z,102068.51
2019-01-11T09:45:21.556Z,102067.33
2019-01-11T09:46:26.656Z,102069.27
2019-01-11T09:47:32.211Z,102066.44
2019-01-11T09:48:37.351Z,102066.63
2019-01-11T09:49:42.139Z,102062.47
2019-01-11T09:50:47.377Z,102065.80
2019-01-11T09:51:52.167Z,102073.16
2019-01-11T09:52:57.643Z,102064.63
2019-01-11T09:54:02.911Z,102063.59
2019-01-11T09:55:08.080Z,102064.95
2019-01-11T09:56:13.501Z,102068.84
2019-01-11T09:57:18.831Z,102070.30
2019-01-11T09:58:23.926Z,102070.61
2019-01-11T09:59:34.931Z,102070.70
2019-01-11T10:00:35.347Z,102065.84
2019-01-11T10:01:40.440Z,102071.09
2019-01-11T10:02:51.933Z,102069.12
2019-01-11T10:03:57.426Z,102069.03
2019-01-11T10:05:02.226Z,102067.94
2019-01-11T10:06:07.495Z,102069.42
2019-01-11T10:07:31.163Z,102068.57
2019-01-11T10:08:36.061Z,102068.57
2019-01-11T10:09:41.288Z,102062.49
2019-01-11T10:10:46.105Z,102061.89
2019-01-11T10:11:51.286Z,102065.95
2019-01-11T10:12:56.163Z,102063.08
2019-01-11T10:14:00.976Z,102064.10
2019-01-11T10:15:06.631Z,102069.39
2019-01-11T10:16:11.408Z,102066.35
2019-01-11T10:17:16.235Z,102072.83
2019-01-11T10:18:21.040Z,102071.27
2019-01-11T10:19:26.148Z,102068.72
2019-01-11T10:20:31.359Z,102073.92
2019-01-11T10:21:36.172Z,102070.87
2019-01-11T10:22:41.354Z,102071.13
2019-01-11T10:23:46.223Z,102063.22
2019-01-11T10:24:51.047Z,102064.10
2019-01-11T10:25:56.271Z,102064.10
2019-01-11T10:27:01.607Z,102063.31
2019-01-11T10:28:06.431Z,102063.50
2019-01-11T10:29:11.526Z,102060.27
2019-01-11T10:30:18.398Z,102053.34
2019-01-11T10:31:23.680Z,102062.37
2019-01-11T10:32:28.569Z,102060.60
2019-01-11T10:33:36.310Z,102062.06
2019-01-11T10:34:41.073Z,102062.45
2019-01-11T10:35:47.335Z,102055.68
2019-01-11T10:36:53.070Z,102051.12
2019-01-11T10:37:58.400Z,102051.60
2019-01-11T10:39:03.199Z,102052.66
2019-01-11T10:40:08.783Z,102039.32
2019-01-11T10:41:14.190Z,102045.88
2019-01-11T10:42:19.015Z,102049.47
2019-01-11T10:43:24.869Z,102040.38
2019-01-11T10:44:29.678Z,102043.01
2019-01-11T10:45:34.493Z,102041.64
2019-01-11T10:46:40.634Z,102042.31
2019-01-11T10:47:45.452Z,102040.95
2019-01-11T10:48:50.922Z,102037.92
2019-01-11T10:49:56.136Z,102038.55
2019-01-11T10:51:01.703Z,102034.64
2019-01-11T10:52:06.565Z,102037.84
2019-01-11T10:53:12.536Z,102041.81
2019-01-11T10:54:42.216Z,102038.33
2019-01-11T10:55:47.371Z,102040.39
2019-01-11T10:56:52.181Z,102043.83
2019-01-11T10:57:56.701Z,102047.27
2019-01-11T10:59:01.179Z,102041.76
2019-01-11T11:00:10.617Z,102037.75
2019-01-11T11:01:15.436Z,102044.63
2019-01-11T11:02:21.391Z,102035.28
2019-01-11T11:03:26.199Z,102035.42
2019-01-11T11:04:30.677Z,102033.53
2019-01-11T11:05:35.845Z,102027.55
2019-01-11T11:06:40.985Z,102026.01
2019-01-11T11:07:45.903Z,102031.38
2019-01-11T11:08:50.909Z,102025.53
2019-01-11T11:09:55.713Z,102024.59
2019-01-11T11:11:00.574Z,102024.91
2019-01-11T11:12:05.510Z,102023.37
2019-01-11T11:13:10.446Z,102023.37
2019-01-11T11:14:15.246Z,102024.00
2019-01-11T11:15:20.332Z,102022.58
2019-01-11T11:16:25.469Z,102024.39
2019-01-11T11:17:31.033Z,102028.31
2019-01-11T11:18:36.409Z,102020.91
2019-01-11T11:19:41.387Z,102026.06
2019-01-11T11:20:46.616Z,102029.37
2019-01-11T11:21:52.303Z,102029.02
2019-01-11T11:22:57.835Z,102027.43
2019-01-11T11:24:03.025Z,102022.72
2019-01-11T11:25:09.775Z,102021.52
2019-01-11T11:26:14.609Z,102022.72
2019-01-11T11:27:19.811Z,102018.66
2019-01-11T11:28:24.626Z,102017.07
2019-01-11T11:29:30.065Z,102016.23
2019-01-11T11:30:35.320Z,102019.94
2019-01-11T11:31:40.730Z,102018.00
2019-01-11T11:32:56.709Z,102013.69
2019-01-11T11:34:01.569Z,102014.96
2019-01-11T11:35:06.364Z,102017.13
2019-01-11T11:36:11.192Z,102020.25
2019-01-11T11:37:19.286Z,102019.28
2019-01-11T11:38:23.774Z,102019.28
2019-01-11T11:39:28.575Z,102017.70
2019-01-11T11:40:33.925Z,102012.27
2019-01-11T11:41:39.339Z,102013.55
2019-01-11T11:42:44.105Z,102019.55
2019-01-11T11:43:49.638Z,102015.84
2019-01-11T11:44:55.054Z,102017.47
2019-01-11T11:45:59.540Z,102014.52
2019-01-11T11:47:04.009Z,102016.19
2019-01-11T11:48:09.487Z,102012.36
2019-01-11T11:49:14.435Z,102009.85
2019-01-11T11:50:19.271Z,102009.41
2019-01-11T11:51:24.101Z,102011.78
2019-01-11T11:52:28.914Z,102001.95
2019-01-11T11:53:34.803Z,102007.55
2019-01-11T11:54:39.972Z,102001.88
2019-01-11T11:55:44.745Z,102000.59
2019-01-11T11:56:49.523Z,102004.65
2019-01-11T11:57:54.346Z,102006.19
2019-01-11T11:58:59.696Z,102001.95
2019-01-11T12:00:04.598Z,102003.55
2019-01-11T12:01:09.828Z,102002.17
2019-01-11T12:02:19.294Z,102007.45
2019-01-11T12:03:22.285Z,102001.78
2019-01-11T12:04:27.084Z,102004.42
2019-01-11T12:05:31.870Z,102001.60
2019-01-11T12:06:37.273Z,101999.64
2019-01-11T12:07:42.110Z,101998.10
2019-01-11T12:08:47.359Z,101997.62
2019-01-11T12:09:52.157Z,101993.87
2019-01-11T12:10:57.409Z,101995.72
2019-01-11T12:12:02.251Z,101984.29
2019-01-11T12:13:07.461Z,101985.63
2019-01-11T12:14:12.374Z,101983.63
2019-01-11T12:15:17.299Z,101978.44
2019-01-11T12:16:22.509Z,101983.94
2019-01-11T12:17:26.998Z,101976.06
2019-01-11T12:18:32.570Z,101979.18
2019-01-11T12:19:37.582Z,101975.87
2019-01-11T12:20:42.366Z,101977.55
2019-01-11T12:21:48.019Z,101974.95
2019-01-11T12:22:52.960Z,101973.67
2019-01-11T12:23:57.787Z,101974.52
2019-01-11T12:25:03.028Z,101973.23
2019-01-11T12:26:08.032Z,101972.52
2019-01-11T12:27:12.503Z,101969.48
2019-01-11T12:28:17.359Z,101968.13